Saturday, February 24, 2018, 3:14 AM EST
Back to Local

KNHK, Nas Patuxent River Md

Location: Patuxent River, MD, United States Lat: 38.3
Local Time: 3:14 AM EST ( 8:14 GMT) Lon: -76.4
Time Zone: US/Eastern Elev: 39 ft

Show me the last for .
Show Decoded

2018-02-24 01:52 METAR KNHK 240652Z AUTO 23003KT 4SM BR OVC004 10/10 A3023 RMK AO2 SLP237
                 T01000100 =
2018-02-24 00:52 METAR KNHK 240552Z AUTO 21004KT 3SM BR OVC003 10/10 A3023 RMK AO2 SLP238 60000
                 T01000100 10100 20067 57020 =
2018-02-24 00:45 METAR KNHK 240545Z AUTO 21004KT 3SM BR OVC003 09/09 A3024 RMK AO2 T00940094 =
2018-02-24 00:09 METAR KNHK 240509Z AUTO 23005KT 2SM BR OVC002 09/09 A3025 RMK AO2 T00940094 =
2018-02-23 23:52 METAR KNHK 240452Z AUTO 20004KT 1 3/4SM BR OVC002 09/09 A3025 RMK AO2 SLP243
                 T00890089 400890044 =
2018-02-23 23:42 METAR KNHK 240442Z AUTO 21003KT 2SM BR OVC002 09/09 A3025 RMK AO2 T00890089 =
2018-02-23 23:12 METAR KNHK 240412Z AUTO 22003KT 1SM BR OVC002 08/08 A3027 RMK AO2 T00830083 =
2018-02-23 23:03 METAR KNHK 240403Z AUTO 00000KT 3/4SM BR VV003 07/07 A3028 RMK AO2 T00720072 =
2018-02-23 22:52 METAR KNHK 240352Z 00000KT 1/2SM FG VV003 07/07 A3028 RMK AO2 SLP252 T00670067 =
2018-02-23 22:41 METAR KNHK 240341Z 00000KT 1/2SM FG VV003 07/07 A3028 RMK AO2 T00670067 =
2018-02-23 21:52 METAR KNHK 240252Z 14004KT 3/4SM BR VV003 07/07 A3029 RMK AO2 SLP258 60000
                 T00670067 56010 =
2018-02-23 21:09 METAR KNHK 240209Z 12003KT 1SM BR OVC003 07/07 A3031 RMK AO2 T00670067 =
2018-02-23 20:52 METAR KNHK 240152Z 13004KT 1SM BR OVC004 07/07 A3032 RMK AO2 DZE52 SLP266 P0000
                 T00670067 =
2018-02-23 20:45 METAR KNHK 240145Z 13004KT 1SM -DZ BR OVC004 07/07 A3032 RMK AO2 P0000 T00670067
                 =
2018-02-23 19:52 METAR KNHK 240052Z 00000KT 1 3/4SM -DZ BR OVC004 07/07 A3033 RMK AO2 SLP269
                 P0000 T00720072 =
2018-02-23 19:21 METAR KNHK 240021Z 00000KT 1 3/4SM -DZ BR OVC003 07/07 A3033 RMK AO2 P0000
                 T00720072 =
2018-02-23 18:52 METAR KNHK 232352Z 00000KT 2SM -DZ BR SCT003 OVC006 07/07 A3034 RMK AO2 DZB52
                 SLP273 P0000 60000 T00720072 10072 20067 58002 =
2018-02-23 17:52 METAR KNHK 232252Z 00000KT 10SM FEW004 OVC008 07/07 A3034 RMK AO2 SLP275
                 T00720067 =
2018-02-23 17:15 METAR KNHK 232215Z 11005KT 10SM SCT004 BKN008 OVC020 07/07 A3035 RMK AO2
                 T00720067 =
2018-02-23 16:52 METAR KNHK 232152Z 15007KT 10SM BKN004 BKN020 07/07 A3034 RMK AO2 SLP275
                 T00720067 =
2018-02-23 15:52 METAR KNHK 232052Z 11004KT 10SM BKN005 OVC025 07/07 A3038 RMK AO2 DZE15 SLP288
                 P0000 60000 T00720067 58029 =
2018-02-23 15:39 METAR KNHK 232039Z 00000KT 10SM BKN006 OVC025 07/07 A3039 RMK AO2 DZE15 P0000
                 T00720067 =
2018-02-23 15:21 METAR KNHK 232021Z 12005KT 10SM OVC004 07/07 A3040 RMK AO2 DZE15 P0000 T00720067
                 =
2018-02-23 15:04 METAR KNHK 232004Z 12005KT 5SM -DZ BR OVC003 07/07 A3040 RMK AO2 P0000 T00670067
                 =
2018-02-23 14:52 METAR KNHK 231952Z 08003KT 2SM -DZ BR OVC003 07/07 A3041 RMK AO2 SLP296 P0000
                 T00670067 =
2018-02-23 14:42 METAR KNHK 231942Z COR 00000KT 2 1/2SM -DZ BR OVC003 07/07 A3041 RMK AO2 P0000
                 T00670067 =
2018-02-23 14:22 METAR KNHK 231922Z 33003KT 3SM -DZ BR OVC004 07/07 A3043 RMK AO2 P0000 T00670067
                 =
2018-02-23 13:52 METAR KNHK 231852Z 31006KT 1 1/2SM -DZ BR OVC003 07/07 A3045 RMK AO2 SLP311
                 P0000 T00670067 =
2018-02-23 13:31 METAR KNHK 231831Z 31004KT 1 1/2SM -DZ BR OVC003 07/07 A3046 RMK AO2 P0000
                 T00670067 =
2018-02-23 13:20 METAR KNHK 231820Z 32004KT 2SM -DZ BR OVC003 07/07 A3046 RMK AO2 P0000 T00670067
                 =
2018-02-23 13:13 METAR KNHK 231813Z 32007KT 2SM -DZ BR OVC006 07/07 A3047 RMK AO2 P0000 T00670067
                 =
2018-02-23 12:52 METAR KNHK 231752Z 00000KT 4SM -DZ BR OVC005 07/06 A3047 RMK AO2 SLP317 P0000
                 60000 T00670061 10072 20050 58021 =
2018-02-23 11:52 METAR KNHK 231652Z 36005KT 3SM -DZ BR OVC005 06/06 A3051 RMK AO2 DZB43 SLP331
                 P0000 T00610061 =
2018-02-23 10:52 METAR KNHK 231552Z 01004KT 2 1/2SM BR OVC004 06/06 A3053 RMK AO2 SLP339
                 T00610061 =
2018-02-23 09:52 METAR KNHK 231452Z 05005KT 2SM BR OVC004 06/06 A3056 RMK AO2 SLP348 T00560056
                 58004 =
2018-02-23 08:52 METAR KNHK 231352Z 04006KT 2SM BR OVC005 06/06 A3057 RMK AO2 SLP352 T00560056 =
2018-02-23 07:52 METAR KNHK 231252Z 03008KT 1 1/4SM BR OVC003 05/05 A3058 RMK AO2 SLP354
                 T00500050 =
2018-02-23 06:52 METAR KNHK 231152Z 03006KT 2 1/2SM BR OVC004 05/05 A3057 RMK AO2 SLP351 60000
                 70007 T00500050 10050 20044 55001 =
2018-02-23 05:52 METAR KNHK 231052Z 07007KT 2SM BR OVC003 05/05 A3055 RMK AO2 SLP345 T00500050 =
2018-02-23 04:52 METAR KNHK 230952Z AUTO 01006KT 2 1/2SM BR OVC003 05/05 A3057 RMK AO2 SLP351
                 T00500050 =
2018-02-23 04:37 METAR KNHK 230937Z AUTO 05008KT 2 1/2SM BR OVC003 05/05 A3056 RMK AO2 T00500050
                 =
2018-02-23 04:18 METAR KNHK 230918Z AUTO 04007KT 2 1/2SM BR OVC004 05/05 A3056 RMK AO2 T00500050
                 =
2018-02-23 04:08 METAR KNHK 230908Z AUTO 04007KT 2 1/2SM BR OVC005 05/05 A3056 RMK AO2 T00500050
                 =
2018-02-23 03:59 METAR KNHK 230859Z AUTO 03006KT 3SM BR OVC005 05/05 A3057 RMK AO2 T00500050 =
2018-02-23 03:52 METAR KNHK 230852Z AUTO 03006KT 4SM BR OVC007 05/05 A3057 RMK AO2 SLP352 60000
                 T00500050 55002 =

Support USWX by starting your Amazon purchase here.